LFMD/CEQ METAR and TAF weather

Enter ICAO airport designator
Station Type Date Time Source
LFMD METAR 2018/12/11 22:30 UTC NOAA

LFMD 112230Z AUTO VRB02KT CAVOK 06/04 Q1018


Station Type Date Time Source
LFMD Decoded METAR 2018/12/11 22:30 UTC NOAA

Cannes, France (LFMD) 43-33N 006-57E 9M
Dec 11, 2018 - 05:30 PM EST / 2018.12.11 2230 UTC
Wind: Variable at 2 MPH (2 KT):0
Visibility: greater than 7 mile(s):0
Temperature: 42 F (6 C)
Dew Point: 39 F (4 C)
Relative Humidity: 86%
Pressure (altimeter): 30.06 in. Hg (1018 hPa)
ob: LFMD 112230Z AUTO VRB02KT CAVOK 06/04 Q1018
cycle: 22

Station Type Date Time Source
LFMD TAF 2018/12/11 19:18 UTC NOAA

TAF TAF LFMD 111911Z 1119/1215 CNL


Example: see airport list